KHFF

Details ICAO KHFF
Name MACKALL AAF
Region United States
Timezone America/New_York (UTC-5.0)
Plans Departing 3
Arriving 2
Stats Elevation 376 ft / 115 m (AMSL)
Location 35.036552° -79.497400°
Runways 3
Magnetic Variation 8.591° W
Sunrise 2017-12-18 12:22:04 UTC / 2017-12-18 07:22:04 Local
Sunset 2017-12-18 22:10:03 UTC / 2017-12-18 17:10:03 Local
Advertisement - Login to hide

Runways

ID Width Length Bearing (true) Bearing (mag) Surface Threshold Offset Overrun Length
04 150 ft / 46 m 5,001 ft / 1,524 m 35.11° 43.70° Asphalt 0 ft / 0 m 0 ft / 0 m
11 150 ft / 46 m 4,731 ft / 1,442 m 109.35° 117.94° Concrete 500 ft / 152 m 1,000 ft / 305 m
16 150 ft / 46 m 4,873 ft / 1,485 m 163.17° 171.76° Concrete 0 ft / 0 m 0 ft / 0 m
22 150 ft / 46 m 5,001 ft / 1,524 m 215.11° 223.70° Asphalt 0 ft / 0 m 0 ft / 0 m
29 150 ft / 46 m 4,731 ft / 1,442 m 289.36° 297.95° Concrete 0 ft / 0 m 1,000 ft / 305 m
34 150 ft / 46 m 4,873 ft / 1,485 m 343.17° 351.76° Concrete 0 ft / 0 m 0 ft / 0 m

Map

Weather


0- 5 10 15 20 25 30 35+ Temperature / ° C

Clouds and Precipitation
Forecast for 2017-12-19 00:00 UTC. Updated an hour ago

Ground ~20,000 ft ~40,000 ft Winds

METAR

KHFF 182156Z AUTO 00000KT 10SM BKN200 16/09 A3008 RMK AO2 SLP202 T01630086 $

TAF

Not found

Frequencies

Ground 128.35 MHz GND
Approach 127.80 MHz FAYETTEVILLE APP/DEP
Tower 121.00 MHz TWR
Warning: Do not use this data for real-world aviation or navigation. No guarantee of current accuracy is given.